createdAt,value
2018-06-21T00:00:07.177Z,4.50
2018-06-21T00:03:11.495Z,4.33
2018-06-21T00:06:16.814Z,4.60
2018-06-21T00:09:21.219Z,4.53
2018-06-21T00:12:25.498Z,4.62
2018-06-21T00:15:30.301Z,4.60
2018-06-21T00:18:35.129Z,4.47
2018-06-21T00:21:39.417Z,4.17
2018-06-21T00:24:43.676Z,3.90
2018-06-21T00:27:48.176Z,4.50
2018-06-21T00:30:53.503Z,4.10
2018-06-21T00:33:57.832Z,4.70
2018-06-21T00:37:02.557Z,3.93
2018-06-21T00:40:06.892Z,3.67
2018-06-21T00:43:11.177Z,3.87
2018-06-21T00:46:16.301Z,3.63
2018-06-21T00:49:20.589Z,3.60
2018-06-21T00:52:25.011Z,3.87
2018-06-21T00:55:46.255Z,4.03
2018-06-21T00:58:50.513Z,3.77
2018-06-21T01:01:54.854Z,3.77
2018-06-21T01:04:59.411Z,3.60
2018-06-21T01:08:03.868Z,3.60
2018-06-21T01:11:08.417Z,3.77
2018-06-21T01:14:12.735Z,3.43
2018-06-21T01:17:17.081Z,3.60
2018-06-21T01:20:22.244Z,3.63
2018-06-21T01:23:26.638Z,2.97
2018-06-21T01:26:30.944Z,3.23
2018-06-21T01:29:35.880Z,3.50
2018-06-21T01:32:40.360Z,3.90
2018-06-21T01:35:44.645Z,3.80
2018-06-21T01:38:48.965Z,3.13
2018-06-21T01:41:53.244Z,3.40
2018-06-21T01:44:58.239Z,3.33
2018-06-21T01:48:02.512Z,3.30
2018-06-21T01:51:08.176Z,3.33
2018-06-21T01:54:12.730Z,3.80
2018-06-21T01:57:17.049Z,3.20
2018-06-21T02:00:21.653Z,3.40
2018-06-21T02:03:25.963Z,3.57
2018-06-21T02:06:30.410Z,3.47
2018-06-21T02:09:34.692Z,3.33
2018-06-21T02:12:39.563Z,3.93
2018-06-21T02:15:43.849Z,3.55
2018-06-21T02:18:48.169Z,3.57
2018-06-21T02:21:52.487Z,3.27
2018-06-21T02:24:56.784Z,3.45
2018-06-21T02:28:01.130Z,3.20
2018-06-21T02:31:05.453Z,3.60
2018-06-21T02:34:09.784Z,3.37
2018-06-21T02:37:14.149Z,3.70
2018-06-21T02:40:18.501Z,3.53
2018-06-21T02:43:22.865Z,3.33
2018-06-21T02:46:27.189Z,3.03
2018-06-21T02:49:31.520Z,3.30
2018-06-21T02:52:35.863Z,3.03
2018-06-21T02:55:40.273Z,2.80
2018-06-21T02:58:44.566Z,3.40
2018-06-21T03:01:48.891Z,3.30
2018-06-21T03:04:53.182Z,3.30
2018-06-21T03:07:57.537Z,3.50
2018-06-21T03:11:02.307Z,3.87
2018-06-21T03:14:06.671Z,3.50
2018-06-21T03:17:11.217Z,3.50
2018-06-21T03:20:15.708Z,3.23
2018-06-21T03:23:21.840Z,3.33
2018-06-21T03:26:26.175Z,2.93
2018-06-21T03:29:30.581Z,3.23
2018-06-21T03:32:34.911Z,3.17
2018-06-21T03:35:39.340Z,2.90
2018-06-21T03:38:43.692Z,3.27
2018-06-21T03:41:48.125Z,3.30
2018-06-21T03:44:52.582Z,3.10
2018-06-21T03:47:56.949Z,3.27
2018-06-21T03:51:01.313Z,2.93
2018-06-21T03:54:05.643Z,3.27
2018-06-21T03:57:10.059Z,3.03
2018-06-21T04:00:14.417Z,2.87
2018-06-21T04:03:18.720Z,3.27
2018-06-21T04:06:23.251Z,2.90
2018-06-21T04:09:27.769Z,2.97
2018-06-21T04:12:32.264Z,2.83
2018-06-21T04:15:36.714Z,3.13
2018-06-21T04:18:41.182Z,2.70
2018-06-21T04:21:45.618Z,2.57
2018-06-21T04:24:50.086Z,2.30
2018-06-21T04:27:55.030Z,3.00
2018-06-21T04:31:00.090Z,2.83
2018-06-21T04:34:04.705Z,2.83
2018-06-21T04:37:09.626Z,2.23
2018-06-21T04:40:13.933Z,2.70
2018-06-21T04:43:18.267Z,2.77
2018-06-21T04:46:23.017Z,2.53
2018-06-21T04:49:27.363Z,2.73
2018-06-21T04:52:31.843Z,2.30
2018-06-21T04:55:36.096Z,2.67
2018-06-21T04:58:40.551Z,2.27
2018-06-21T05:01:44.935Z,2.97
2018-06-21T05:04:49.259Z,2.67
2018-06-21T05:07:54.017Z,2.60
2018-06-21T05:10:58.378Z,2.50
2018-06-21T05:14:03.304Z,2.40
2018-06-21T05:17:08.251Z,2.37
2018-06-21T05:20:13.828Z,2.30
2018-06-21T05:23:18.537Z,2.67
2018-06-21T05:26:24.573Z,2.27
2018-06-21T05:29:29.280Z,2.50
2018-06-21T05:32:33.994Z,2.10
2018-06-21T05:35:38.632Z,1.98
2018-06-21T05:38:43.874Z,2.73
2018-06-21T05:41:48.311Z,2.20
2018-06-21T05:44:53.569Z,2.17
2018-06-21T05:48:02.165Z,2.50
2018-06-21T05:51:06.846Z,2.50
2018-06-21T05:54:11.818Z,2.17
2018-06-21T05:57:16.579Z,2.20
2018-06-21T06:00:21.121Z,2.00
2018-06-21T06:03:25.702Z,2.30
2018-06-21T06:06:29.954Z,1.87
2018-06-21T06:09:34.301Z,2.00
2018-06-21T06:12:39.068Z,1.77
2018-06-21T06:15:43.437Z,2.15
2018-06-21T06:18:47.782Z,1.67
2018-06-21T06:21:52.226Z,1.90
2018-06-21T06:24:56.697Z,1.80
2018-06-21T06:28:01.389Z,1.60
2018-06-21T06:31:05.723Z,1.97
2018-06-21T06:34:10.336Z,1.67
2018-06-21T06:37:14.692Z,1.80
2018-06-21T06:40:19.016Z,1.70
2018-06-21T06:43:23.724Z,1.57
2018-06-21T06:46:28.158Z,1.60
2018-06-21T06:49:32.601Z,1.90
2018-06-21T06:52:36.939Z,1.90
2018-06-21T06:55:42.346Z,1.80
2018-06-21T06:58:47.371Z,1.77
2018-06-21T07:01:51.774Z,1.77
2018-06-21T07:04:56.111Z,1.70
2018-06-21T07:08:00.534Z,1.40
2018-06-21T07:11:05.217Z,1.60
2018-06-21T07:14:09.584Z,1.33
2018-06-21T07:17:13.900Z,1.80
2018-06-21T07:20:18.998Z,1.70
2018-06-21T07:23:23.291Z,1.70
2018-06-21T07:26:27.780Z,1.60
2018-06-21T07:29:32.101Z,1.60
2018-06-21T07:32:36.680Z,1.80
2018-06-21T07:35:40.994Z,2.03
2018-06-21T07:38:46.425Z,1.50
2018-06-21T07:41:50.755Z,1.55
2018-06-21T07:44:55.089Z,1.73
2018-06-21T07:47:59.382Z,1.90
2018-06-21T07:51:03.985Z,1.90
2018-06-21T07:54:09.354Z,1.60
2018-06-21T07:57:13.625Z,2.10
2018-06-21T08:00:17.891Z,1.80
2018-06-21T08:03:22.265Z,2.10
2018-06-21T08:06:27.095Z,1.83
2018-06-21T08:09:31.430Z,2.00
2018-06-21T08:12:35.844Z,2.20
2018-06-21T08:15:40.338Z,1.93
2018-06-21T08:18:45.234Z,2.30
2018-06-21T08:21:49.550Z,1.80
2018-06-21T08:24:53.915Z,1.93
2018-06-21T08:27:58.303Z,1.90
2018-06-21T08:31:02.625Z,2.13
2018-06-21T08:34:06.922Z,1.87
2018-06-21T08:37:11.338Z,2.07
2018-06-21T08:40:16.199Z,1.90
2018-06-21T08:43:20.595Z,1.73
2018-06-21T08:46:25.006Z,1.80
2018-06-21T08:49:29.520Z,1.97
2018-06-21T08:52:33.889Z,1.60
2018-06-21T08:55:38.820Z,1.60
2018-06-21T08:58:43.869Z,1.77
2018-06-21T09:01:48.211Z,1.80
2018-06-21T09:04:52.640Z,1.90
2018-06-21T09:07:57.311Z,1.87
2018-06-21T09:11:01.679Z,1.63
2018-06-21T09:14:07.030Z,1.80
2018-06-21T09:17:11.350Z,2.03
2018-06-21T09:20:15.841Z,2.43
2018-06-21T09:23:20.267Z,2.10
2018-06-21T09:26:24.618Z,2.10
2018-06-21T09:29:29.105Z,2.10
2018-06-21T09:32:33.551Z,2.53
2018-06-21T09:35:37.851Z,2.93
2018-06-21T09:39:51.829Z,2.30
2018-06-21T09:43:01.513Z,2.37
2018-06-21T09:46:11.070Z,2.17
2018-06-21T09:49:15.362Z,2.60
2018-06-21T09:52:19.965Z,2.37
2018-06-21T09:55:24.278Z,2.30
2018-06-21T09:58:28.885Z,2.67
2018-06-21T10:01:33.202Z,2.20
2018-06-21T10:04:37.564Z,2.47
2018-06-21T10:07:42.503Z,2.30
2018-06-21T10:10:47.761Z,2.00
2018-06-21T10:13:52.721Z,2.33
2018-06-21T10:16:57.032Z,2.00
2018-06-21T10:20:01.337Z,2.00
2018-06-21T10:23:05.728Z,1.87
2018-06-21T10:26:10.370Z,1.97
2018-06-21T10:29:14.679Z,2.23
2018-06-21T10:32:19.513Z,2.70
2018-06-21T10:35:24.012Z,2.10
2018-06-21T10:38:28.409Z,2.10
2018-06-21T10:41:32.701Z,2.63
2018-06-21T10:44:37.229Z,2.50
2018-06-21T10:47:41.590Z,2.20
2018-06-21T10:50:45.951Z,2.83
2018-06-21T10:53:50.422Z,2.67
2018-06-21T10:56:54.814Z,2.70
2018-06-21T10:59:59.134Z,2.73
2018-06-21T11:03:04.285Z,2.83
2018-06-21T11:06:08.741Z,2.63
2018-06-21T11:09:13.150Z,2.53
2018-06-21T11:12:18.225Z,2.40
2018-06-21T11:15:23.177Z,2.70
2018-06-21T11:18:27.613Z,2.43
2018-06-21T11:21:31.938Z,2.30
2018-06-21T11:24:36.744Z,2.17
2018-06-21T11:27:41.151Z,2.60
2018-06-21T11:30:45.996Z,2.70
2018-06-21T11:33:50.376Z,2.67
2018-06-21T11:36:54.726Z,2.77
2018-06-21T11:40:00.134Z,3.00
2018-06-21T11:43:04.559Z,2.40
2018-06-21T11:46:08.894Z,2.67
2018-06-21T11:49:13.423Z,2.80
2018-06-21T11:52:17.776Z,3.10
2018-06-21T11:55:22.225Z,2.80
2018-06-21T11:58:26.533Z,2.40
2018-06-21T12:01:30.605Z,2.67
2018-06-21T12:04:34.966Z,2.53
2018-06-21T12:07:39.598Z,2.40
2018-06-21T12:10:43.934Z,2.40
2018-06-21T12:13:48.929Z,2.70
2018-06-21T12:16:53.232Z,2.00
2018-06-21T12:19:57.577Z,2.83
2018-06-21T12:23:01.987Z,2.77
2018-06-21T12:26:06.345Z,2.13
2018-06-21T12:29:10.774Z,2.37
2018-06-21T12:32:15.300Z,2.30
2018-06-21T12:35:19.652Z,2.90
2018-06-21T12:38:23.969Z,2.30
2018-06-21T12:41:28.428Z,2.70
2018-06-21T12:44:33.190Z,2.60
2018-06-21T12:47:37.601Z,3.07
2018-06-21T12:50:41.920Z,2.70
2018-06-21T12:53:46.970Z,2.00
2018-06-21T12:56:51.339Z,2.00
2018-06-21T12:59:55.693Z,2.33
2018-06-21T13:03:00.367Z,2.20
2018-06-21T13:06:04.742Z,2.40
2018-06-21T13:09:26.135Z,2.43
2018-06-21T13:12:48.832Z,2.03
2018-06-21T13:15:53.562Z,2.37
2018-06-21T13:18:57.698Z,2.67
2018-06-21T13:22:02.093Z,2.10
2018-06-21T13:25:06.645Z,2.57
2018-06-21T13:28:11.066Z,2.50
2018-06-21T13:31:15.409Z,2.50
2018-06-21T13:34:20.604Z,2.80
2018-06-21T13:37:25.105Z,2.80
2018-06-21T13:40:29.489Z,2.17
2018-06-21T13:43:35.454Z,2.33
2018-06-21T13:46:39.814Z,2.40
2018-06-21T13:49:44.573Z,2.83
2018-06-21T13:52:48.983Z,1.77
2018-06-21T13:55:53.863Z,1.63
2018-06-21T13:58:58.068Z,2.13
2018-06-21T14:02:02.421Z,2.13
2018-06-21T14:05:06.754Z,2.63
2018-06-21T14:08:11.217Z,1.23
2018-06-21T14:11:15.545Z,1.23
2018-06-21T14:14:19.964Z,7.47
2018-06-21T14:17:25.321Z,1.80
2018-06-21T14:20:29.861Z,1.27
2018-06-21T14:23:35.550Z,1.50
2018-06-21T14:26:40.273Z,1.20
2018-06-21T14:29:45.858Z,1.50
2018-06-21T14:32:50.314Z,1.77
2018-06-21T14:35:54.745Z,1.80
2018-06-21T14:38:59.613Z,1.50
2018-06-21T14:42:03.942Z,1.47
2018-06-21T14:45:08.222Z,2.63
2018-06-21T14:48:12.682Z,2.30
2018-06-21T14:51:17.064Z,1.92
2018-06-21T14:54:21.435Z,2.17
2018-06-21T14:57:25.768Z,1.83
2018-06-21T15:00:30.152Z,1.93
2018-06-21T15:03:34.747Z,1.90
2018-06-21T15:06:39.170Z,1.77
2018-06-21T15:09:43.537Z,2.00
2018-06-21T15:12:47.919Z,2.00
2018-06-21T15:15:52.334Z,2.00
2018-06-21T15:18:56.908Z,2.40
2018-06-21T15:22:02.625Z,2.20
2018-06-21T15:25:07.409Z,2.00
2018-06-21T15:28:12.000Z,2.57
2018-06-21T15:31:16.612Z,2.20
2018-06-21T15:34:21.397Z,2.23
2018-06-21T15:37:25.872Z,2.47
2018-06-21T15:40:30.300Z,2.10
2018-06-21T15:43:35.473Z,2.07
2018-06-21T15:46:40.726Z,2.27
2018-06-21T15:49:45.017Z,2.17
2018-06-21T15:52:49.478Z,2.20
2018-06-21T15:55:53.867Z,2.30
2018-06-21T15:58:58.215Z,1.90
2018-06-21T16:02:02.576Z,2.13
2018-06-21T16:05:07.101Z,2.13
2018-06-21T16:08:11.741Z,2.17
2018-06-21T16:11:16.057Z,2.17
2018-06-21T16:14:20.739Z,2.20
2018-06-21T16:17:25.350Z,6.33
2018-06-21T16:20:29.711Z,2.90
2018-06-21T16:23:34.306Z,1.57
2018-06-21T16:26:39.011Z,2.00
2018-06-21T16:29:43.415Z,1.80
2018-06-21T16:32:47.931Z,1.80
2018-06-21T16:35:52.361Z,1.80
2018-06-21T16:38:56.132Z,2.00
2018-06-21T16:42:00.711Z,1.90
2018-06-21T16:45:05.373Z,2.33
2018-06-21T16:48:10.573Z,2.27
2018-06-21T16:51:15.026Z,1.87
2018-06-21T16:54:19.532Z,1.67
2018-06-21T16:57:23.962Z,1.77
2018-06-21T17:00:28.373Z,1.90
2018-06-21T17:03:33.076Z,1.60
2018-06-21T17:06:38.034Z,1.63
2018-06-21T17:09:42.537Z,1.70
2018-06-21T17:12:47.011Z,1.60
2018-06-21T17:15:51.469Z,1.60
2018-06-21T17:18:57.076Z,1.90
2018-06-21T17:22:01.693Z,1.65
2018-06-21T17:25:06.198Z,1.73
2018-06-21T17:28:11.420Z,1.80
2018-06-21T17:31:15.928Z,1.70
2018-06-21T17:34:20.526Z,2.03
2018-06-21T17:37:26.779Z,2.00
2018-06-21T17:40:31.337Z,1.77
2018-06-21T17:43:36.814Z,2.10
2018-06-21T17:46:44.387Z,1.73
2018-06-21T17:49:48.935Z,2.03
2018-06-21T17:52:53.375Z,1.60
2018-06-21T17:55:57.869Z,1.80
2018-06-21T17:59:02.226Z,2.10
2018-06-21T18:02:06.581Z,2.10
2018-06-21T18:05:11.221Z,2.07
2018-06-21T18:08:15.670Z,2.27
2018-06-21T18:11:22.450Z,2.00
2018-06-21T18:14:26.938Z,2.07
2018-06-21T18:17:31.611Z,1.83
2018-06-21T18:20:36.480Z,1.83
2018-06-21T18:23:42.993Z,1.73
2018-06-21T18:26:47.494Z,1.57
2018-06-21T18:29:51.974Z,2.23
2018-06-21T18:32:57.192Z,1.83
2018-06-21T18:36:03.606Z,1.50
2018-06-21T18:39:11.452Z,1.70
2018-06-21T18:42:15.995Z,1.50
2018-06-21T18:45:20.669Z,1.37
2018-06-21T18:48:25.069Z,1.63
2018-06-21T18:51:30.685Z,1.80
2018-06-21T18:54:35.373Z,2.50
2018-06-21T18:57:40.174Z,2.00
2018-06-21T19:00:44.490Z,1.97
2018-06-21T19:03:48.877Z,2.37
2018-06-21T19:06:58.596Z,2.40
2018-06-21T19:10:08.286Z,2.60
2018-06-21T19:13:12.843Z,2.30
2018-06-21T19:16:17.871Z,1.90
2018-06-21T19:19:22.262Z,2.20
2018-06-21T19:22:26.860Z,2.27
2018-06-21T19:25:31.404Z,2.47
2018-06-21T19:28:35.846Z,2.30
2018-06-21T19:31:40.422Z,2.00
2018-06-21T19:34:45.675Z,2.00
2018-06-21T19:37:49.906Z,2.10
2018-06-21T19:40:54.186Z,1.53
2018-06-21T19:43:58.845Z,2.30
2018-06-21T19:47:04.661Z,1.90
2018-06-21T19:50:10.156Z,1.93
2018-06-21T19:53:14.642Z,1.50
2018-06-21T19:56:19.460Z,1.85
2018-06-21T19:59:26.189Z,1.50
2018-06-21T20:02:36.664Z,1.30
2018-06-21T20:05:41.025Z,1.40
2018-06-21T20:08:45.388Z,1.47
2018-06-21T20:11:49.834Z,1.30
2018-06-21T20:14:54.234Z,1.40
2018-06-21T20:17:59.831Z,1.40
2018-06-21T20:21:04.298Z,1.70
2018-06-21T20:24:09.533Z,1.50
2018-06-21T20:27:14.045Z,1.40
2018-06-21T20:30:19.198Z,1.10
2018-06-21T20:33:23.749Z,1.20
2018-06-21T20:36:29.470Z,1.40
2018-06-21T20:40:03.039Z,1.27
2018-06-21T20:43:08.917Z,2.53
2018-06-21T20:46:13.381Z,2.23
2018-06-21T20:49:17.715Z,2.70
2018-06-21T20:52:27.538Z,3.30
2018-06-21T20:55:32.438Z,3.47
2018-06-21T20:58:37.246Z,3.70
2018-06-21T21:01:42.003Z,3.23
2018-06-21T21:05:14.094Z,3.00
2018-06-21T21:08:18.390Z,2.50
2018-06-21T21:11:22.773Z,2.70
2018-06-21T21:14:27.084Z,2.80
2018-06-21T21:17:31.537Z,2.73
2018-06-21T21:20:35.964Z,2.77
2018-06-21T21:23:40.264Z,2.30
2018-06-21T21:26:44.671Z,3.10
2018-06-21T21:29:49.312Z,2.10
2018-06-21T21:32:53.726Z,4.10
2018-06-21T21:35:58.168Z,2.73
2018-06-21T21:39:03.265Z,3.17
2018-06-21T21:42:07.662Z,3.53
2018-06-21T21:45:12.094Z,3.05
2018-06-21T21:48:16.587Z,2.50
2018-06-21T21:51:20.918Z,2.23
2018-06-21T21:54:25.232Z,2.10
2018-06-21T21:57:30.200Z,2.13
2018-06-21T22:00:46.470Z,1.53
2018-06-21T22:03:50.785Z,1.50
2018-06-21T22:06:55.524Z,1.33
2018-06-21T22:09:59.830Z,0.90
2018-06-21T22:13:04.192Z,0.90
2018-06-21T22:16:08.609Z,0.83
2018-06-21T22:19:12.945Z,0.70
2018-06-21T22:22:17.335Z,0.80
2018-06-21T22:25:21.614Z,0.80
2018-06-21T22:28:26.452Z,0.90
2018-06-21T22:31:30.952Z,0.97
2018-06-21T22:34:35.239Z,1.50
2018-06-21T22:37:39.523Z,1.00
2018-06-21T22:40:43.894Z,1.30
2018-06-21T22:43:48.246Z,0.97
2018-06-21T22:46:53.466Z,0.93
2018-06-21T22:49:57.777Z,0.70
2018-06-21T22:53:02.073Z,0.70
2018-06-21T22:56:06.508Z,0.97
2018-06-21T22:59:11.024Z,0.93
2018-06-21T23:02:15.467Z,0.60
2018-06-21T23:05:19.815Z,0.70
2018-06-21T23:08:24.358Z,0.70
2018-06-21T23:11:28.831Z,0.60
2018-06-21T23:14:33.339Z,0.50
2018-06-21T23:17:37.742Z,0.60
2018-06-21T23:20:42.063Z,0.83
2018-06-21T23:23:47.298Z,0.70
2018-06-21T23:26:51.925Z,0.70
2018-06-21T23:29:56.381Z,0.60
2018-06-21T23:33:00.698Z,0.70
2018-06-21T23:36:05.171Z,0.60
2018-06-21T23:39:11.196Z,0.60
2018-06-21T23:42:15.654Z,0.60
2018-06-21T23:45:19.958Z,0.60
2018-06-21T23:48:24.317Z,0.63
2018-06-21T23:51:29.323Z,0.60
2018-06-21T23:54:33.612Z,0.70
2018-06-21T23:57:38.350Z,0.50
